createdAt,value
2017-05-25T00:00:45.144Z,13.60
2017-05-25T00:03:13.437Z,13.50
2017-05-25T00:05:41.762Z,13.50
2017-05-25T00:08:10.085Z,13.40
2017-05-25T00:10:38.374Z,13.40
2017-05-25T00:13:06.852Z,13.40
2017-05-25T00:15:35.132Z,13.40
2017-05-25T00:18:03.417Z,13.30
2017-05-25T00:20:31.740Z,13.20
2017-05-25T00:23:00.036Z,13.20
2017-05-25T00:25:28.349Z,13.20
2017-05-25T00:27:56.669Z,13.20
2017-05-25T00:30:24.988Z,13.10
2017-05-25T00:32:53.288Z,13.10
2017-05-25T00:35:21.604Z,13.10
2017-05-25T00:37:49.909Z,13.00
2017-05-25T00:40:18.201Z,13.00
2017-05-25T00:42:46.521Z,13.00
2017-05-25T00:45:14.809Z,12.90
2017-05-25T00:47:43.337Z,12.90
2017-05-25T00:50:11.630Z,12.90
2017-05-25T00:52:39.936Z,12.80
2017-05-25T00:55:08.635Z,12.80
2017-05-25T00:57:36.924Z,12.80
2017-05-25T01:00:05.206Z,12.80
2017-05-25T01:02:33.520Z,12.80
2017-05-25T01:05:01.809Z,12.70
2017-05-25T01:07:29.333Z,12.70
2017-05-25T01:09:57.837Z,12.70
2017-05-25T01:12:26.133Z,12.60
2017-05-25T01:14:54.420Z,12.60
2017-05-25T01:17:22.956Z,12.60
2017-05-25T01:19:51.234Z,12.50
2017-05-25T01:22:19.519Z,12.50
2017-05-25T01:24:47.834Z,12.50
2017-05-25T01:27:16.129Z,12.40
2017-05-25T01:29:44.449Z,12.40
2017-05-25T01:32:12.740Z,12.40
2017-05-25T01:34:41.052Z,12.40
2017-05-25T01:37:09.382Z,12.30
2017-05-25T01:39:37.661Z,12.30
2017-05-25T01:42:05.961Z,12.30
2017-05-25T01:44:34.273Z,12.20
2017-05-25T01:47:02.561Z,12.20
2017-05-25T01:49:30.872Z,12.20
2017-05-25T01:51:59.181Z,12.10
2017-05-25T01:54:27.493Z,12.10
2017-05-25T01:56:55.808Z,12.10
2017-05-25T01:59:24.130Z,12.10
2017-05-25T02:01:52.435Z,12.10
2017-05-25T02:04:20.762Z,12.10
2017-05-25T02:06:49.053Z,12.00
2017-05-25T02:09:17.357Z,12.00
2017-05-25T02:11:45.691Z,12.00
2017-05-25T02:14:13.992Z,12.00
2017-05-25T02:16:42.281Z,11.90
2017-05-25T02:19:10.904Z,11.90
2017-05-25T02:21:39.188Z,11.90
2017-05-25T02:24:07.485Z,11.90
2017-05-25T02:26:36.041Z,11.90
2017-05-25T02:29:04.346Z,11.80
2017-05-25T02:31:32.636Z,11.80
2017-05-25T02:34:01.100Z,11.80
2017-05-25T02:36:29.392Z,11.80
2017-05-25T02:38:57.680Z,11.70
2017-05-25T02:41:26.001Z,11.70
2017-05-25T02:43:54.285Z,11.70
2017-05-25T02:46:22.605Z,11.70
2017-05-25T02:48:50.911Z,11.80
2017-05-25T02:51:19.421Z,11.80
2017-05-25T02:53:47.709Z,11.90
2017-05-25T02:56:15.996Z,11.90
2017-05-25T02:58:44.301Z,12.00
2017-05-25T03:01:12.589Z,12.10
2017-05-25T03:03:40.901Z,12.20
2017-05-25T03:06:09.601Z,12.30
2017-05-25T03:08:37.888Z,12.30
2017-05-25T03:11:06.172Z,12.30
2017-05-25T03:13:34.623Z,12.30
2017-05-25T03:16:02.920Z,12.40
2017-05-25T03:18:31.207Z,12.30
2017-05-25T03:20:59.677Z,12.40
2017-05-25T03:23:27.961Z,12.40
2017-05-25T03:25:56.262Z,12.40
2017-05-25T03:28:24.817Z,12.50
2017-05-25T03:30:53.117Z,12.50
2017-05-25T03:33:21.435Z,12.60
2017-05-25T03:35:49.764Z,12.60
2017-05-25T03:38:18.064Z,12.60
2017-05-25T03:40:46.447Z,12.60
2017-05-25T03:43:14.974Z,12.60
2017-05-25T03:45:43.269Z,12.60
2017-05-25T03:48:10.789Z,12.60
2017-05-25T03:50:40.021Z,12.50
2017-05-25T03:53:08.314Z,12.60
2017-05-25T03:55:36.604Z,12.60
2017-05-25T03:58:04.912Z,12.70
2017-05-25T04:00:33.218Z,12.80
2017-05-25T04:03:01.496Z,12.90
2017-05-25T04:05:29.840Z,12.90
2017-05-25T04:07:58.141Z,12.90
2017-05-25T04:10:26.424Z,13.00
2017-05-25T04:12:54.805Z,13.00
2017-05-25T04:15:23.085Z,12.90
2017-05-25T04:17:51.456Z,13.00
2017-05-25T04:20:19.788Z,12.90
2017-05-25T04:22:48.062Z,12.80
2017-05-25T04:25:16.343Z,12.80
2017-05-25T04:27:44.647Z,12.80
2017-05-25T04:30:12.939Z,12.90
2017-05-25T04:32:41.312Z,12.90
2017-05-25T04:35:09.701Z,12.80
2017-05-25T04:37:38.080Z,12.70
2017-05-25T04:40:06.360Z,12.70
2017-05-25T04:42:34.668Z,12.60
2017-05-25T04:45:02.947Z,12.70
2017-05-25T04:47:31.251Z,12.80
2017-05-25T04:49:59.527Z,12.80
2017-05-25T04:52:27.940Z,12.80
2017-05-25T04:54:56.269Z,12.80
2017-05-25T04:57:24.552Z,12.80
2017-05-25T04:59:52.876Z,12.90
2017-05-25T05:02:21.156Z,12.90
2017-05-25T05:04:49.439Z,12.90
2017-05-25T05:07:17.743Z,12.90
2017-05-25T05:09:46.020Z,13.00
2017-05-25T05:12:14.399Z,13.10
2017-05-25T05:14:43.084Z,13.10
2017-05-25T05:17:11.367Z,13.10
2017-05-25T05:19:39.648Z,13.00
2017-05-25T05:22:08.332Z,13.00
2017-05-25T05:24:36.611Z,13.00
2017-05-25T05:27:04.985Z,13.10
2017-05-25T05:29:34.489Z,13.00
2017-05-25T05:32:02.774Z,13.00
2017-05-25T05:34:31.127Z,13.10
2017-05-25T05:36:59.500Z,13.10
2017-05-25T05:39:27.985Z,13.10
2017-05-25T05:41:56.364Z,13.10
2017-05-25T05:44:24.745Z,13.10
2017-05-25T05:46:53.121Z,13.20
2017-05-25T05:49:21.500Z,13.20
2017-05-25T05:51:49.781Z,13.20
2017-05-25T05:54:18.085Z,13.40
2017-05-25T05:56:46.400Z,13.50
2017-05-25T05:59:14.707Z,13.70
2017-05-25T06:01:43.601Z,13.80
2017-05-25T06:04:11.884Z,13.70
2017-05-25T06:06:40.256Z,13.80
2017-05-25T06:09:08.738Z,13.70
2017-05-25T06:11:37.080Z,13.70
2017-05-25T06:14:05.392Z,13.80
2017-05-25T06:16:33.724Z,13.80
2017-05-25T06:19:02.008Z,13.90
2017-05-25T06:21:30.328Z,14.10
2017-05-25T06:23:58.633Z,14.20
2017-05-25T06:26:26.939Z,14.40
2017-05-25T06:28:55.220Z,14.50
2017-05-25T06:31:23.729Z,14.50
2017-05-25T06:33:52.312Z,14.60
2017-05-25T06:36:20.684Z,14.50
2017-05-25T06:38:48.976Z,14.50
2017-05-25T06:41:17.283Z,14.60
2017-05-25T06:43:45.564Z,14.90
2017-05-25T06:46:13.901Z,15.00
2017-05-25T06:48:42.225Z,15.00
2017-05-25T06:51:10.553Z,14.60
2017-05-25T06:53:38.933Z,14.60
2017-05-25T06:56:07.297Z,14.50
2017-05-25T06:58:35.706Z,14.60
2017-05-25T07:01:04.680Z,14.70
2017-05-25T07:03:33.069Z,14.70
2017-05-25T07:06:01.457Z,15.00
2017-05-25T07:08:29.772Z,15.40
2017-05-25T07:10:58.208Z,15.80
2017-05-25T07:13:26.499Z,15.70
2017-05-25T07:15:54.795Z,15.60
2017-05-25T07:18:23.348Z,15.90
2017-05-25T07:20:52.029Z,15.90
2017-05-25T07:23:20.508Z,15.90
2017-05-25T07:25:48.829Z,16.10
2017-05-25T07:28:17.154Z,16.30
2017-05-25T07:30:45.551Z,16.40
2017-05-25T07:33:13.929Z,16.60
2017-05-25T07:35:42.229Z,16.60
2017-05-25T07:38:10.537Z,16.50
2017-05-25T07:40:38.859Z,16.40
2017-05-25T07:43:07.160Z,16.40
2017-05-25T07:45:35.729Z,16.40
2017-05-25T07:48:04.025Z,16.40
2017-05-25T07:50:32.325Z,16.40
2017-05-25T07:53:00.652Z,16.50
2017-05-25T07:55:28.949Z,16.40
2017-05-25T07:57:57.370Z,16.30
2017-05-25T08:00:24.897Z,16.30
2017-05-25T08:02:53.194Z,15.50
2017-05-25T08:05:21.520Z,15.50
2017-05-25T08:07:49.918Z,15.60
2017-05-25T08:10:18.213Z,15.60
2017-05-25T08:12:46.633Z,15.70
2017-05-25T08:15:14.954Z,15.80
2017-05-25T08:17:43.330Z,15.80
2017-05-25T08:20:11.716Z,16.00
2017-05-25T08:22:40.014Z,16.30
2017-05-25T08:25:08.369Z,16.20
2017-05-25T08:27:36.766Z,15.80
2017-05-25T08:30:05.133Z,15.70
2017-05-25T08:32:33.508Z,15.70
2017-05-25T08:35:01.889Z,15.90
2017-05-25T08:37:30.189Z,15.70
2017-05-25T08:39:58.546Z,15.70
2017-05-25T08:42:26.922Z,15.70
2017-05-25T08:44:55.220Z,15.70
2017-05-25T08:47:23.577Z,15.90
2017-05-25T08:49:51.896Z,16.00
2017-05-25T08:52:20.238Z,16.20
2017-05-25T08:54:48.616Z,16.20
2017-05-25T08:57:17.008Z,16.30
2017-05-25T08:59:45.305Z,16.40
2017-05-25T09:02:13.756Z,16.50
2017-05-25T09:04:42.138Z,16.60
2017-05-25T09:07:10.814Z,16.60
2017-05-25T09:09:39.296Z,16.60
2017-05-25T09:12:07.684Z,16.60
2017-05-25T09:14:36.053Z,16.60
2017-05-25T09:17:04.434Z,16.60
2017-05-25T09:19:32.728Z,16.50
2017-05-25T09:22:01.051Z,16.50
2017-05-25T09:24:29.474Z,16.70
2017-05-25T09:26:57.768Z,16.70
2017-05-25T09:29:26.106Z,16.80
2017-05-25T09:31:54.401Z,17.10
2017-05-25T09:34:22.697Z,17.20
2017-05-25T09:36:51.159Z,17.20
2017-05-25T09:39:19.457Z,17.30
2017-05-25T09:41:47.823Z,17.30
2017-05-25T09:44:16.170Z,16.90
2017-05-25T09:46:44.473Z,16.90
2017-05-25T09:49:12.850Z,17.00
2017-05-25T09:51:41.181Z,17.10
2017-05-25T09:54:09.477Z,17.00
2017-05-25T09:56:37.792Z,17.00
2017-05-25T09:59:06.153Z,16.90
2017-05-25T10:01:34.538Z,16.90
2017-05-25T10:04:03.122Z,17.10
2017-05-25T10:06:31.501Z,17.20
2017-05-25T10:08:59.877Z,17.30
2017-05-25T10:11:28.256Z,17.30
2017-05-25T10:13:56.640Z,17.40
2017-05-25T10:16:24.935Z,17.30
2017-05-25T10:18:53.257Z,17.20
2017-05-25T10:21:21.565Z,17.20
2017-05-25T10:23:49.859Z,17.40
2017-05-25T10:26:18.228Z,17.50
2017-05-25T10:28:46.710Z,17.60
2017-05-25T10:31:15.005Z,17.70
2017-05-25T10:33:43.365Z,17.80
2017-05-25T10:36:11.742Z,17.90
2017-05-25T10:38:40.070Z,17.80
2017-05-25T10:41:08.361Z,18.00
2017-05-25T10:43:36.649Z,18.10
2017-05-25T10:46:05.261Z,18.10
2017-05-25T10:48:33.632Z,18.10
2017-05-25T10:51:01.933Z,18.10
2017-05-25T10:53:30.257Z,18.10
2017-05-25T10:55:58.681Z,18.10
2017-05-25T10:58:27.060Z,18.20
2017-05-25T11:00:55.397Z,18.20
2017-05-25T11:03:23.697Z,18.40
2017-05-25T11:05:52.190Z,18.50
2017-05-25T11:08:20.476Z,18.60
2017-05-25T11:10:48.766Z,18.60
2017-05-25T11:13:17.078Z,18.60
2017-05-25T11:15:45.397Z,18.70
2017-05-25T11:18:13.725Z,18.70
2017-05-25T11:20:42.016Z,18.60
2017-05-25T11:23:10.381Z,18.70
2017-05-25T11:25:38.758Z,18.80
2017-05-25T11:28:07.242Z,18.70
2017-05-25T11:30:35.528Z,18.70
2017-05-25T11:33:03.822Z,18.80
2017-05-25T11:35:32.174Z,18.90
2017-05-25T11:38:00.514Z,19.00
2017-05-25T11:40:28.835Z,19.10
2017-05-25T11:42:57.116Z,19.20
2017-05-25T11:45:25.591Z,19.10
2017-05-25T11:47:53.882Z,19.10
2017-05-25T11:50:22.171Z,19.10
2017-05-25T11:52:50.525Z,19.20
2017-05-25T11:55:18.806Z,19.40
2017-05-25T11:57:47.092Z,19.50
2017-05-25T12:00:15.401Z,19.60
2017-05-25T12:02:43.734Z,19.80
2017-05-25T12:05:12.029Z,20.00
2017-05-25T12:07:40.389Z,19.90
2017-05-25T12:10:08.687Z,20.00
2017-05-25T12:12:36.977Z,20.00
2017-05-25T12:15:05.305Z,20.00
2017-05-25T12:17:33.588Z,19.90
2017-05-25T12:20:01.870Z,20.00
2017-05-25T12:22:30.269Z,19.80
2017-05-25T12:24:58.552Z,19.80
2017-05-25T12:27:26.910Z,19.90
2017-05-25T12:29:55.245Z,20.00
2017-05-25T12:32:23.529Z,20.00
2017-05-25T12:34:51.816Z,20.10
2017-05-25T12:37:20.134Z,20.10
2017-05-25T12:39:48.420Z,20.00
2017-05-25T12:42:16.875Z,20.10
2017-05-25T12:44:45.164Z,20.20
2017-05-25T12:47:13.454Z,20.20
2017-05-25T12:49:41.806Z,20.20
2017-05-25T12:52:10.101Z,20.40
2017-05-25T12:54:38.412Z,20.50
2017-05-25T12:57:06.702Z,20.60
2017-05-25T12:59:34.986Z,20.80
2017-05-25T13:02:03.300Z,20.80
2017-05-25T13:04:31.575Z,20.70
2017-05-25T13:06:59.880Z,20.80
2017-05-25T13:09:28.197Z,20.90
2017-05-25T13:11:56.480Z,20.90
2017-05-25T13:14:24.801Z,20.90
2017-05-25T13:16:53.081Z,20.90
2017-05-25T13:19:21.362Z,20.90
2017-05-25T13:21:49.679Z,20.90
2017-05-25T13:24:17.959Z,21.00
2017-05-25T13:26:46.232Z,21.10
2017-05-25T13:29:14.552Z,21.30
2017-05-25T13:31:42.832Z,21.20
2017-05-25T13:34:11.112Z,21.20
2017-05-25T13:36:39.437Z,21.30
2017-05-25T13:39:07.716Z,21.20
2017-05-25T13:41:35.996Z,21.30
2017-05-25T13:44:04.301Z,21.30
2017-05-25T13:46:32.583Z,21.30
2017-05-25T13:49:00.908Z,21.40
2017-05-25T13:51:29.190Z,21.40
2017-05-25T13:53:57.476Z,21.40
2017-05-25T13:56:25.991Z,21.30
2017-05-25T13:58:54.367Z,21.40
2017-05-25T14:01:22.748Z,21.50
2017-05-25T14:03:51.160Z,21.60
2017-05-25T14:06:19.439Z,21.80
2017-05-25T14:08:47.723Z,21.70
2017-05-25T14:11:16.065Z,21.70
2017-05-25T14:13:44.386Z,21.70
2017-05-25T14:16:12.724Z,21.70
2017-05-25T14:18:41.209Z,21.80
2017-05-25T14:21:09.580Z,22.00
2017-05-25T14:23:37.861Z,22.10
2017-05-25T14:26:06.236Z,22.00
2017-05-25T14:28:34.607Z,22.00
2017-05-25T14:31:03.108Z,22.00
2017-05-25T14:33:31.384Z,22.00
2017-05-25T14:35:59.668Z,22.10
2017-05-25T14:38:28.024Z,22.10
2017-05-25T14:40:56.409Z,22.00
2017-05-25T14:43:24.717Z,22.10
2017-05-25T14:45:53.065Z,22.20
2017-05-25T14:48:21.444Z,22.30
2017-05-25T14:50:49.720Z,22.50
2017-05-25T14:53:18.000Z,22.30
2017-05-25T14:55:46.436Z,22.20
2017-05-25T14:58:14.770Z,22.40
2017-05-25T15:00:43.052Z,22.40
2017-05-25T15:03:11.523Z,22.40
2017-05-25T15:05:39.813Z,22.40
2017-05-25T15:08:08.178Z,22.60
2017-05-25T15:10:36.519Z,22.90
2017-05-25T15:13:04.840Z,23.10
2017-05-25T15:15:33.117Z,23.00
2017-05-25T15:18:01.494Z,23.00
2017-05-25T15:20:29.818Z,22.90
2017-05-25T15:22:58.151Z,23.00
2017-05-25T15:25:26.431Z,23.00
2017-05-25T15:27:54.735Z,23.10
2017-05-25T15:30:22.429Z,23.10
2017-05-25T15:32:50.712Z,23.30
2017-05-25T15:35:18.995Z,23.30
2017-05-25T15:37:47.384Z,23.70
2017-05-25T15:40:15.677Z,23.90
2017-05-25T15:42:45.296Z,23.70
2017-05-25T15:45:13.659Z,23.70
2017-05-25T15:47:41.977Z,23.60
2017-05-25T15:50:10.304Z,23.70
2017-05-25T15:52:38.601Z,24.00
2017-05-25T15:55:07.902Z,24.00
2017-05-25T15:57:36.244Z,23.90
2017-05-25T16:00:04.526Z,23.70
2017-05-25T16:02:32.826Z,23.40
2017-05-25T16:05:01.448Z,23.20
2017-05-25T16:07:29.771Z,23.00
2017-05-25T16:09:58.076Z,23.20
2017-05-25T16:12:26.429Z,23.20
2017-05-25T16:14:54.748Z,22.90
2017-05-25T16:17:22.631Z,22.90
2017-05-25T16:19:50.916Z,22.90
2017-05-25T16:22:19.224Z,22.90
2017-05-25T16:24:47.507Z,22.90
2017-05-25T16:27:15.893Z,22.70
2017-05-25T16:29:44.198Z,22.70
2017-05-25T16:32:12.513Z,22.70
2017-05-25T16:34:40.836Z,22.90
2017-05-25T16:37:09.189Z,23.20
2017-05-25T16:39:37.464Z,23.50
2017-05-25T16:42:05.755Z,23.60
2017-05-25T16:44:34.232Z,23.40
2017-05-25T16:47:02.728Z,23.60
2017-05-25T16:49:31.151Z,23.80
2017-05-25T16:51:59.492Z,23.80
2017-05-25T16:54:27.770Z,23.90
2017-05-25T16:56:56.153Z,24.10
2017-05-25T16:59:24.533Z,24.30
2017-05-25T17:01:53.011Z,24.30
2017-05-25T17:04:21.293Z,24.10
2017-05-25T17:06:49.600Z,23.70
2017-05-25T17:09:18.288Z,23.40
2017-05-25T17:11:47.051Z,23.30
2017-05-25T17:14:15.414Z,23.60
2017-05-25T17:16:43.742Z,24.10
2017-05-25T17:19:12.285Z,24.40
2017-05-25T17:21:40.569Z,24.80
2017-05-25T17:24:08.852Z,24.80
2017-05-25T17:26:37.222Z,25.00
2017-05-25T17:29:05.508Z,25.00
2017-05-25T17:31:33.792Z,25.20
2017-05-25T17:34:02.199Z,25.30
2017-05-25T17:36:30.539Z,25.20
2017-05-25T17:38:58.839Z,25.30
2017-05-25T17:41:27.153Z,25.40
2017-05-25T17:43:55.424Z,25.30
2017-05-25T17:46:23.713Z,25.40
2017-05-25T17:48:52.342Z,25.30
2017-05-25T17:51:20.761Z,25.30
2017-05-25T17:53:49.114Z,25.30
2017-05-25T17:56:17.431Z,25.20
2017-05-25T17:58:45.721Z,25.10
2017-05-25T18:01:14.950Z,25.10
2017-05-25T18:03:43.414Z,25.10
2017-05-25T18:06:11.701Z,25.20
2017-05-25T18:08:40.014Z,25.00
2017-05-25T18:11:08.621Z,24.80
2017-05-25T18:13:36.899Z,24.90
2017-05-25T18:16:05.167Z,24.80
2017-05-25T18:18:33.491Z,24.50
2017-05-25T18:21:01.768Z,24.50
2017-05-25T18:23:30.160Z,24.60
2017-05-25T18:25:58.559Z,24.70
2017-05-25T18:28:26.866Z,24.70
2017-05-25T18:30:55.189Z,24.40
2017-05-25T18:33:23.564Z,24.30
2017-05-25T18:35:51.876Z,24.20
2017-05-25T18:38:20.216Z,24.00
2017-05-25T18:40:48.491Z,23.90
2017-05-25T18:43:16.778Z,23.70
2017-05-25T18:45:45.102Z,23.50
2017-05-25T18:48:13.432Z,23.30
2017-05-25T18:50:40.937Z,23.30
2017-05-25T18:53:09.235Z,23.00
2017-05-25T18:55:37.536Z,22.70
2017-05-25T18:58:06.023Z,22.40
2017-05-25T19:00:34.296Z,22.20
2017-05-25T19:03:02.671Z,22.00
2017-05-25T19:05:31.056Z,21.80
2017-05-25T19:07:59.333Z,21.60
2017-05-25T19:10:27.894Z,21.50
2017-05-25T19:12:56.174Z,21.40
2017-05-25T19:15:24.468Z,21.30
2017-05-25T19:17:52.995Z,21.20
2017-05-25T19:20:21.317Z,21.00
2017-05-25T19:22:49.601Z,20.80
2017-05-25T19:25:17.973Z,20.80
2017-05-25T19:27:46.284Z,20.60
2017-05-25T19:30:14.568Z,20.50
2017-05-25T19:32:42.909Z,20.40
2017-05-25T19:35:11.389Z,20.20
2017-05-25T19:37:39.668Z,20.10
2017-05-25T19:40:07.996Z,20.00
2017-05-25T19:42:36.280Z,19.80
2017-05-25T19:45:04.566Z,19.70
2017-05-25T19:47:32.914Z,19.70
2017-05-25T19:50:01.220Z,19.60
2017-05-25T19:52:29.540Z,19.50
2017-05-25T19:54:57.878Z,19.50
2017-05-25T19:57:26.193Z,19.40
2017-05-25T19:59:54.534Z,19.30
2017-05-25T20:02:22.907Z,19.20
2017-05-25T20:04:51.284Z,19.20
2017-05-25T20:07:19.790Z,19.10
2017-05-25T20:09:48.149Z,19.00
2017-05-25T20:12:16.523Z,19.00
2017-05-25T20:14:44.844Z,19.00
2017-05-25T20:17:13.189Z,18.90
2017-05-25T20:19:41.568Z,18.90
2017-05-25T20:22:09.867Z,18.80
2017-05-25T20:24:38.320Z,18.80
2017-05-25T20:27:06.699Z,18.70
2017-05-25T20:29:35.077Z,18.60
2017-05-25T20:32:03.367Z,18.60
2017-05-25T20:34:31.651Z,18.50
2017-05-25T20:37:00.068Z,18.50
2017-05-25T20:39:28.358Z,18.40
2017-05-25T20:41:56.644Z,18.40
2017-05-25T20:44:24.960Z,18.40
2017-05-25T20:46:52.521Z,18.40
2017-05-25T20:49:20.804Z,18.30
2017-05-25T20:51:49.081Z,18.20
2017-05-25T20:54:17.388Z,18.20
2017-05-25T20:56:45.675Z,18.20
2017-05-25T20:59:14.088Z,18.10
2017-05-25T21:01:42.472Z,18.10
2017-05-25T21:04:10.787Z,18.00
2017-05-25T21:06:39.128Z,18.00
2017-05-25T21:09:07.589Z,18.00
2017-05-25T21:11:35.960Z,17.90
2017-05-25T21:14:04.347Z,17.90
2017-05-25T21:16:32.715Z,17.90
2017-05-25T21:19:01.019Z,17.80
2017-05-25T21:21:29.370Z,17.80
2017-05-25T21:23:57.656Z,17.70
2017-05-25T21:26:26.136Z,17.70
2017-05-25T21:28:54.420Z,17.70
2017-05-25T21:31:22.720Z,17.70
2017-05-25T21:33:51.197Z,17.60
2017-05-25T21:36:19.485Z,17.50
2017-05-25T21:38:47.763Z,17.50
2017-05-25T21:41:16.137Z,17.50
2017-05-25T21:43:44.428Z,17.40
2017-05-25T21:46:12.785Z,17.40
2017-05-25T21:48:41.120Z,17.30
2017-05-25T21:51:09.401Z,17.30
2017-05-25T21:53:37.687Z,17.20
2017-05-25T21:56:06.087Z,17.20
2017-05-25T21:58:34.392Z,17.20
2017-05-25T22:01:02.854Z,17.10
2017-05-25T22:03:31.177Z,17.10
2017-05-25T22:05:59.464Z,17.00
2017-05-25T22:08:27.748Z,17.00
2017-05-25T22:10:56.061Z,16.90
2017-05-25T22:13:24.384Z,16.90
2017-05-25T22:15:52.668Z,16.80
2017-05-25T22:18:20.948Z,16.80
2017-05-25T22:20:49.476Z,16.80
2017-05-25T22:23:17.857Z,16.70
2017-05-25T22:25:46.232Z,16.60
2017-05-25T22:28:14.612Z,16.70
2017-05-25T22:30:42.991Z,16.60
2017-05-25T22:33:11.273Z,16.50
2017-05-25T22:35:39.600Z,16.40
2017-05-25T22:38:07.928Z,16.40
2017-05-25T22:40:36.210Z,16.40
2017-05-25T22:43:04.584Z,16.40
2017-05-25T22:45:32.868Z,16.40
2017-05-25T22:48:01.232Z,16.40
2017-05-25T22:50:29.539Z,16.40
2017-05-25T22:52:57.817Z,16.40
2017-05-25T22:55:26.164Z,16.30
2017-05-25T22:57:54.543Z,16.30
2017-05-25T23:00:22.820Z,16.30
2017-05-25T23:02:51.203Z,16.30
2017-05-25T23:05:19.680Z,16.20
2017-05-25T23:07:48.174Z,16.20
2017-05-25T23:10:16.461Z,16.20
2017-05-25T23:12:45.025Z,16.20
2017-05-25T23:15:13.305Z,16.10
2017-05-25T23:17:41.669Z,16.10
2017-05-25T23:20:09.976Z,16.10
2017-05-25T23:22:38.344Z,16.00
2017-05-25T23:25:06.624Z,16.00
2017-05-25T23:27:35.096Z,16.00
2017-05-25T23:30:03.486Z,16.00
2017-05-25T23:32:31.856Z,16.00
2017-05-25T23:35:00.232Z,16.00
2017-05-25T23:37:28.596Z,15.90
2017-05-25T23:39:56.896Z,15.90
2017-05-25T23:42:25.375Z,15.90
2017-05-25T23:44:53.751Z,15.90
2017-05-25T23:47:22.032Z,15.80
2017-05-25T23:49:50.412Z,15.80
2017-05-25T23:52:18.692Z,15.80
2017-05-25T23:54:47.076Z,15.80
2017-05-25T23:57:15.549Z,15.70
2017-05-25T23:59:43.929Z,15.70
